• Join FlightAware (Why Join?)
  • Login
  • US Flag 
03:54AM EDT


 

Airport Tracker/Info


-or-


 

Live Flight TrackerFlight Track Log ✈ GJS3618 ✈ 21-Jan-2014 ✈ KMSP - KDEN

Flight Track Log - Related Links

Times and Time Zones

All times are in EST time to prevent confusion due to time zone crossing. See the GJS3618 flight status page for this flight to view local times or setup timezone preferences in your user account.

Time Position Orientation Groundspeed Altitude Reporting Facility
EST Latitude Longitude Course Direction KTS MPH feet Rate Location/Type
06:58AM 44.8333 -93.2333 232° Southwest 165 190 3,000  Level Minneapolis TRACON
06:59AM 44.7811 -93.2511 194° South 203 234 5,600 2,400 Climbing Minneapolis Center
07:00AM 44.7492 -93.3267 239° Southwest 239 275 8,000 2,400 Climbing Minneapolis Center
07:01AM 44.7192 -93.4203 246° West 262 302 10,400 2,280 Climbing Minneapolis Center
07:02AM 44.6822 -93.5294 245° Southwest 306 352 12,700 2,280 Climbing Minneapolis Center
07:03AM 44.6169 -93.9550 232° Southwest  Level Estimated
07:03AM 44.6361 -93.6439 241° Southwest 337 388 15,000  Level Minneapolis Center
07:04AM 44.5883 -93.7664 241° Southwest 357 411 16,800 1,560 Climbing Minneapolis Center
07:05AM 44.5378 -93.8931 241° Southwest 370 426 18,200 1,440 Climbing Minneapolis Center
07:06AM 44.4853 -94.0272 241° Southwest 386 444 19,700 1,440 Climbing Minneapolis Center
07:07AM 44.4292 -94.1664 241° Southwest 404 465 21,200 1,440 Climbing Minneapolis Center
07:08AM 44.3731 -94.3106 241° Southwest 418 481 22,700 1,440 Climbing Minneapolis Center
07:09AM 44.3142 -94.4556 240° Southwest 427 491 24,200 1,440 Climbing Minneapolis Center
07:10AM 44.2556 -94.5997 240° Southwest 429 494 25,700 1,620 Climbing Minneapolis Center
07:11AM 44.1878 -94.7636 240° Southwest 433 498 27,500 1,560 Climbing Minneapolis Center
07:12AM 44.1283 -94.9086 240° Southwest 432 497 28,900 1,200 Climbing Minneapolis Center
07:13AM 44.0692 -95.0542 241° Southwest 432 497 30,000 540 Climbing Minneapolis Center
07:14AM 44.0081 -95.2039 240° Southwest 441 507 30,000  Level Minneapolis Center
07:15AM 43.9436 -95.3583 240° Southwest 456 525 30,000  Level Minneapolis Center
07:16AM 43.8794 -95.5106 240° Southwest 456 525 30,000  Level Minneapolis Center
07:17AM 43.8156 -95.6614 240° Southwest 453 521 30,000  Level Minneapolis Center
07:18AM 43.7514 -95.8125 240° Southwest 454 522 30,000  Level Minneapolis Center
07:19AM 43.6883 -95.9631 240° Southwest 451 519 30,000  Level Minneapolis Center
07:20AM 43.6236 -96.1114 239° Southwest 449 517 30,000  Level Minneapolis Center
07:21AM 43.5600 -96.2606 240° Southwest 449 517 30,000  Level Minneapolis Center
07:22AM 43.4961 -96.4094 239° Southwest 449 517 30,000  Level Minneapolis Center
07:23AM 43.4311 -96.5569 239° Southwest 450 518 30,000  Level Minneapolis Center
07:24AM 43.3672 -96.7042 239° Southwest 449 517 30,000  Level Minneapolis Center
07:25AM 43.3028 -96.8533 239° Southwest 452 520 30,000  Level Minneapolis Center
07:26AM 43.2364 -96.9994 238° Southwest 451 519 30,000  Level Minneapolis Center
07:27AM 43.1722 -97.1461 239° Southwest 450 518 30,000  Level Minneapolis Center
07:28AM 43.1067 -97.2933 239° Southwest 451 519 30,000  Level Minneapolis Center
07:29AM 43.0411 -97.4400 239° Southwest 453 521 30,000  Level Minneapolis Center
07:30AM 42.9758 -97.5869 239° Southwest 453 521 30,000  Level Minneapolis Center
07:31AM 42.9094 -97.7322 238° Southwest 452 520 30,000  Level Minneapolis Center
07:32AM 42.8294 -97.9078 238° Southwest 453 521 30,000  Level Minneapolis Center
07:33AM 42.7628 -98.0522 238° Southwest 453 521 30,000  Level Minneapolis Center
07:34AM 42.6964 -98.1964 238° Southwest 451 519 30,000  Level Minneapolis Center
07:35AM 42.6278 -98.3489 239° Southwest 454 522 30,000  Level Minneapolis Center
07:36AM 42.5611 -98.4931 238° Southwest 453 521 30,000  Level Minneapolis Center
07:37AM 42.4931 -98.6375 237° Southwest 454 522 30,000  Level Minneapolis Center
07:38AM 42.4278 -98.7842 239° Southwest 455 524 30,000  Level Minneapolis Center
07:39AM 42.3622 -98.9294 239° Southwest 453 521 30,000  Level Minneapolis Center
07:40AM 42.2975 -99.0747 239° Southwest 452 520 30,000  Level Minneapolis Center
07:41AM 42.2697 -99.1339 238° Southwest 456 525 30,000  Level Denver Center
07:42AM 42.2044 -99.2800 239° Southwest 456 525 30,000  Level Denver Center
07:43AM 42.1411 -99.4264 240° Southwest 454 522 30,000  Level Denver Center
07:44AM 42.0797 -99.5722 240° Southwest 453 521 30,000  Level Denver Center
07:45AM 42.0111 -99.7342 240° Southwest 451 519 30,000  Level Denver Center
07:46AM 41.9511 -99.8750 240° Southwest 454 522 30,000  Level Denver Center
07:47AM 41.8811 -100.0400 240° Southwest 454 522 30,000  Level Denver Center
07:48AM 41.8206 -100.1808 240° Southwest 456 525 30,000  Level Denver Center
07:49AM 41.7603 -100.3211 240° Southwest 456 525 30,000  Level Denver Center
07:50AM 41.6892 -100.4842 240° Southwest 456 525 30,000  Level Denver Center
07:51AM 41.6278 -100.6247 240° Southwest 457 526 30,000  Level Denver Center
07:52AM 41.5664 -100.7647 240° Southwest 458 527 30,000  Level Denver Center
07:53AM 41.5053 -100.9036 240° Southwest 457 526 30,000  Level Denver Center
07:54AM 41.4339 -101.0669 240° Southwest 459 528 30,000  Level Denver Center
07:55AM 41.3719 -101.2072 240° Southwest 461 531 30,000  Level Denver Center
07:56AM 41.3097 -101.3475 239° Southwest 461 531 30,000  Level Denver Center
07:57AM 41.2356 -101.5100 239° Southwest 463 533 30,000  Level Denver Center
07:58AM 41.1731 -101.6497 239° Southwest 462 532 30,000  Level Denver Center
07:59AM 41.1094 -101.7892 239° Southwest 463 533 30,000  Level Denver Center
08:00AM 41.0356 -101.9525 239° Southwest 463 533 30,000  Level Denver Center
08:01AM 40.9711 -102.0919 239° Southwest 466 536 30,000  Level Denver Center
08:02AM 40.9083 -102.2314 239° Southwest 462 532 30,000  Level Denver Center
08:03AM 40.8317 -102.3922 238° Southwest 463 533 30,000  Level Denver Center
08:04AM 40.7675 -102.5314 239° Southwest 463 533 30,000  Level Denver Center
08:05AM 40.7022 -102.6700 238° Southwest 466 536 30,000 -600 Level Denver Center
08:06AM 40.6314 -102.8231 239° Southwest 460 529 28,900 -1,380 Descending Denver Center
08:07AM 40.5692 -102.9553 238° Southwest 428 493 27,300 -1,560 Descending Denver Center
08:08AM 40.5086 -103.0833 238° Southwest 416 479 25,800 -1,500 Descending Denver Center
08:09AM 40.4503 -103.2033 237° Southwest 395 455 24,300 -1,500 Descending Denver Center
08:10AM 40.3944 -103.3217 238° Southwest 384 442 22,900 -1,320 Descending Denver Center
08:11AM 40.3408 -103.4356 238° Southwest 371 427 21,700 -1,200 Descending Denver Center
08:12AM 40.2869 -103.5467 238° Southwest 363 418 20,500 -1,200 Descending Denver Center
08:13AM 40.2383 -103.6564 240° Southwest 351 404 19,300 -1,200 Descending Denver Center
08:14AM 40.2167 -103.7747 257° West 321 369 18,200 -1,020 Descending Denver Center
08:15AM 40.2058 -103.8881 263° West 315 362 17,300 -1,260 Descending Denver Center
08:16AM 40.2019 -104.0050 268° West 323 372 15,700 -1,560 Descending Denver Center
08:17AM 40.1903 -104.1222 263° West 324 373 14,200 -1,500 Descending Denver Center
08:18AM 40.1769 -104.2392 262° West 326 375 12,700 -1,500 Descending Denver Center
08:19AM 40.1675 -104.3556 264° West 323 372 11,200 -1,260 Descending Denver Center
08:20AM 40.1581 -104.4683 264° West 315 362 10,200 -780 Descending Denver Center
08:21AM 40.1417 -104.5681 258° West 291 335 9,700 -1,080 Descending Denver Center
08:22AM 40.0847 -104.6475 227° Southwest 285 328 8,100 -1,140 Descending Denver Center
08:23AM 40.0192 -104.6831 203° Southwest 257 296 7,500 -780 Descending Denver Center
08:24AM 39.9603 -104.6864 182° South 215 247 6,600 -900 Descending Denver Center
08:25AM 39.9192 -104.6864 180° South 147 169 5,800 -660 Descending Denver Center
08:26AM 39.8828 -104.6869 181° South 132 152 5,300 -540 Descending Denver Center
08:28AM 39.8617 -104.6732 180° South  Level Estimated
08:35AM 39.8617 -104.6732 180° South  Level Estimated
08:36AM 39.8617 -104.6732 180° South  Level Estimated